KOZR/OZR METAR and TAF weather

Enter ICAO airport designator
Station Type Date Time Source
KOZR METAR 2019/06/19 06:56 UTC NOAA

KOZR 190656Z AUTO 19004KT 10SM FEW003 24/23 A2992 RMK AO2 SLP131 T02350230


Station Type Date Time Source
KOZR Decoded METAR 2019/06/19 06:56 UTC NOAA

Cairns Army Air Field / Ozark, AL, United States (KOZR) 31-17N 085-43W
Jun 19, 2019 - 02:56 AM EDT / 2019.06.19 0656 UTC
Wind: from the S (190 degrees) at 5 MPH (4 KT):0
Visibility: 10 mile(s):0
Sky conditions: mostly clear
Temperature: 74.3 F (23.5 C)
Dew Point: 73.4 F (23.0 C)
Relative Humidity: 97%
Pressure (altimeter): 29.92 in. Hg (1013 hPa)
ob: KOZR 190656Z AUTO 19004KT 10SM FEW003 24/23 A2992 RMK AO2 SLP131 T02350230
cycle: 7

Station Type Date Time Source
KOZR TAF 2019/06/19 06:38 UTC NOAA

TAF
AMD KOZR 190635Z 1906/2006 15006KT 9999 BKN005 BKN030 QNH2986INS
TEMPO 1906/1908 FEW005
BECMG 1908/1909 21003KT 4800 BR SCT008 BKN015 BKN030 QNH2990INS
BECMG 1914/1915 23012KT 9999 NSW SCT015 BKN030 QNH2988INS
BECMG 1923/1924 23009KT 9999 SCT030 QNH2992INS TX33/1920Z TN22/1909Z

Example: see airport list